Flight Track Log - Related Links

Times and Time Zones

All times are in EDT time to prevent confusion due to time zone crossing. See the GLA194 flight status page for this flight to view local times or setup timezone preferences in your user account.

Time Position Orientation Groundspeed Altitude Reporting Facility
EDT Latitude Longitude Course Direction KTS MPH feet Rate Location/Type
Sat 10:49:20 AM 46.4825 -90.0939 207° Southwest 175 201 5,700  Level Minneapolis Center
Sat 10:50:22 AM 46.4550 -90.1703 242° Southwest 181 208 8,400 2,565 Climbing Minneapolis Center
Sat 10:51:24 AM 46.4158 -90.2322 227° Southwest 176 203 11,000 2,129 Climbing Minneapolis Center
Sat 10:52:26 AM 46.3736 -90.2633 207° Southwest 173 199 12,800 1,805 Climbing Minneapolis Center
Sat 10:53:27 AM 46.3308 -90.2944 207° Southwest 173 199 14,700 1,659 Climbing Minneapolis Center
Sat 10:54:29 AM 46.2994 -90.3186 208° Southwest 167 192 16,200 726 Climbing Minneapolis Center
Sat 10:55:31 AM 46.2506 -90.3694 216° Southwest 178 205 16,200  Level Minneapolis Center
Sat 10:56:32 AM 46.2025 -90.4192 216° Southwest 202 232 16,200  Level Minneapolis Center
Sat 10:57:34 AM 46.1486 -90.4636 210° Southwest 217 250 16,200  Level Minneapolis Center
Sat 10:58:48 AM 46.0833 -90.5172 210° Southwest 224 258 16,200 -43 Level Minneapolis Center
Sat 10:59:53 AM 46.0175 -90.5717 210° Southwest 227 261 16,100  Descending Minneapolis Center
Sat 11:00:55 AM 45.9633 -90.6181 211° Southwest 228 262 16,200 -49 Climbing Minneapolis Center
Sat 11:01:56 AM 45.9078 -90.6658 211° Southwest 230 265 16,000 -98 Descending Minneapolis Center
Sat 11:02:58 AM 45.8533 -90.7144 212° Southwest 230 265 16,000  Level Minneapolis Center
Sat 11:04:00 AM 45.7892 -90.7714 212° Southwest 227 261 16,000  Level Minneapolis Center
Sat 11:05:02 AM 45.7394 -90.8272 218° Southwest 230 265 16,000  Level Minneapolis Center
Sat 11:06:03 AM 45.7044 -90.8994 235° Southwest 223 257 16,000 49 Level Minneapolis Center
Sat 11:07:05 AM 45.6650 -90.9708 232° Southwest 228 262 16,100 -48 Climbing Minneapolis Center
Sat 11:08:07 AM 45.6253 -91.0386 230° Southwest 225 259 15,900 -49 Descending Minneapolis Center
Sat 11:09:08 AM 45.5858 -91.1094 232° Southwest 227 261 16,000 49 Climbing Minneapolis Center
Sat 11:10:10 AM 45.5475 -91.1803 232° Southwest 226 260 16,000  Level Minneapolis Center
Sat 11:11:36 AM 45.4983 -91.2689 232° Southwest 226 260 16,000  Level Minneapolis Center
Sat 11:12:38 AM 45.4522 -91.3533 232° Southwest 225 259 16,000  Level Minneapolis Center
Sat 11:13:39 AM 45.4122 -91.4217 230° Southwest 225 259 16,000  Level Minneapolis Center
Sat 11:14:41 AM 45.3647 -91.5042 231° Southwest 226 260 16,000  Level Minneapolis Center
Sat 11:15:43 AM 45.3278 -91.5739 233° Southwest 224 258 16,000 -49 Level Minneapolis Center
Sat 11:16:44 AM 45.2897 -91.6408 231° Southwest 221 254 15,900 49 Descending Minneapolis Center
Sat 11:17:46 AM 45.2511 -91.7086 231° Southwest 222 255 16,100 -484 Climbing Minneapolis Center
Sat 11:18:48 AM 45.2178 -91.7775 236° Southwest 216 249 14,900 -1,317 Descending Minneapolis Center
Sat 11:19:49 AM 45.1792 -91.8458 231° Southwest 221 254 13,400 -1,415 Descending Minneapolis Center
Sat 11:20:51 AM 45.1336 -91.9189 229° Southwest 244 281 12,000 -1,500 Descending Minneapolis Center
Sat 11:21:53 AM 45.0861 -92.0206 237° Southwest 260 299 10,300 -1,268 Descending Minneapolis Center
Sat 11:22:54 AM 45.0728 -92.0981 256° West 256 295 9,400 -585 Descending Minneapolis Center
Sat 11:23:56 AM 45.0556 -92.2131 258° West 249 287 9,100 -146 Descending Minneapolis Center
Sat 11:24:57 AM 45.0417 -92.3097 259° West 251 289 9,100  Level Minneapolis Center
Sat 11:25:59 AM 45.0317 -92.4092 262° West 256 295 9,100 -48 Level Minneapolis Center
Sat 11:27:01 AM 45.0217 -92.5081 262° West 255 293 9,000 -49 Descending Minneapolis Center
Sat 11:28:02 AM 45.0064 -92.6042 257° West 253 291 9,000  Level Minneapolis Center
Sat 11:29:04 AM 44.9789 -92.7186 251° West 256 295 9,000  Level Minneapolis Center
Sat 11:30:06 AM 44.9567 -92.8131 252° West 255 293 9,000 -146 Level Minneapolis Center
Sat 11:31:07 AM 44.9419 -92.9111 258° West 256 295 8,700 -488 Descending Minneapolis Center
Sat 11:32:09 AM 44.9356 -93.0072 265° West 250 288 8,000 -339 Descending Minneapolis Center
Sat 11:33:11 AM 44.9519 -93.1008 284° West 262 302 8,000 -829 Level Minneapolis Center
Sat 11:34:12 AM 44.9950 -93.2028 301° West 255 293 6,300 -1,707 Descending Minneapolis Center
Sat 11:35:14 AM 45.0364 -93.2908 304° West 271 312 4,500 -1,113 Descending Minneapolis Center
Sat 11:36:16 AM 45.0575 -93.3767 289° West 225 259 4,000 -195 Descending Minneapolis Center
Sat 11:37:17 AM 45.0300 -93.4247 231° Southwest 184 212 4,100 -49 Climbing Minneapolis Center
Sat 11:38:19 AM 44.9856 -93.4022 160° South 179 206 3,900 -484 Descending Minneapolis Center
Sat 11:39:21 AM 44.9519 -93.3578 137° Southeast 174 200 3,100 -774 Descending Minneapolis Center
Sat 11:40:23 AM 44.9306 -93.3081 121° Southeast 150 173 2,300 -780 Descending Minneapolis Center
Sat 11:41:24 AM 44.9092 -93.2575 121° Southeast 126 145 1,500 -787 Descending Minneapolis Center
Sat 11:43:00 AM 44.8820 -93.2218 225° Southwest  Level Estimated
Sat 11:50:00 AM 44.8820 -93.2218 225° Southwest  Level Estimated

Login

Don't have an account? Register now (free) for customized features, flight alerts, and more!